Risingsun, Ohio
Current Conditions -  °F | °C
As of 2:53 AM on Friday 24 Oct 2014 (Local Time) from KTDZ Reporting Station
Clear Clear  
Wind Chill: 34°   Ceiling: Unl
Heat Index: 38°   Visibility: 7mi
Dew Point: 35°   Wind: 5mph
Humidity: 89%   Direction: 150°SSE
Pressure: 30.11"   Gusts: NA
Location:  41.27°N, 83.42°W
Report Text: KTDZ 240653Z AUTO 15004KT 7SM CLR 03/02 A3011 RMK AO2 SLP200 T00330017 TSNO
Loading
Personal Weather Stations






























Interactive Weather Map New forecast layout! Learn more

10-Day Weather Forecast

Advertisements
Track Severe Weather on mobile